createdAt,value
2023-02-09T00:01:25.836Z,1.20
2023-02-09T00:03:54.315Z,0.19
2023-02-09T00:06:24.373Z,1.17
2023-02-09T00:08:54.811Z,1.21
2023-02-09T00:11:46.514Z,1.22
2023-02-09T00:14:15.214Z,1.23
2023-02-09T00:16:43.641Z,1.26
2023-02-09T00:19:12.439Z,1.27
2023-02-09T00:21:41.353Z,1.07
2023-02-09T00:24:11.685Z,1.37
2023-02-09T00:26:40.119Z,1.33
2023-02-09T00:29:08.674Z,1.49
2023-02-09T00:31:37.262Z,1.53
2023-02-09T00:34:05.646Z,1.54
2023-02-09T00:36:34.180Z,1.38
2023-02-09T00:39:02.107Z,1.61
2023-02-09T00:41:49.135Z,1.61
2023-02-09T00:44:17.227Z,1.58
2023-02-09T00:46:45.145Z,1.49
2023-02-09T00:49:13.156Z,1.60
2023-02-09T00:51:41.188Z,1.64
2023-02-09T00:54:09.096Z,1.65
2023-02-09T00:56:38.451Z,1.72
2023-02-09T00:59:06.480Z,1.86
2023-02-09T01:01:34.345Z,1.93
2023-02-09T01:04:02.379Z,1.93
2023-02-09T01:06:30.985Z,2.00
2023-02-09T01:08:59.194Z,2.04
2023-02-09T01:11:28.503Z,1.99
2023-02-09T01:13:59.609Z,2.10
2023-02-09T01:16:28.849Z,2.15
2023-02-09T01:18:57.443Z,2.03
2023-02-09T01:21:25.944Z,2.13
2023-02-09T01:23:53.859Z,1.96
2023-02-09T01:26:22.306Z,2.11
2023-02-09T01:28:51.584Z,2.10
2023-02-09T01:31:24.327Z,2.09
2023-02-09T01:33:53.106Z,1.95
2023-02-09T01:36:21.722Z,2.07
2023-02-09T01:38:49.764Z,2.03
2023-02-09T01:41:19.093Z,1.94
2023-02-09T01:44:06.702Z,1.93
2023-02-09T01:46:37.878Z,1.95
2023-02-09T01:49:09.184Z,1.87
2023-02-09T01:51:43.262Z,1.97
2023-02-09T01:54:16.588Z,1.98
2023-02-09T01:56:48.791Z,1.87
2023-02-09T01:59:17.605Z,1.93
2023-02-09T02:01:47.290Z,1.89
2023-02-09T02:04:15.617Z,1.86
2023-02-09T02:06:43.939Z,1.75
2023-02-09T02:09:13.951Z,1.69
2023-02-09T02:11:44.523Z,1.83
2023-02-09T02:14:29.648Z,1.67
2023-02-09T02:17:06.939Z,1.82
2023-02-09T02:20:00.631Z,1.84
2023-02-09T02:22:44.914Z,1.95
2023-02-09T02:25:42.400Z,1.97
2023-02-09T02:28:32.271Z,2.00
2023-02-09T02:31:19.039Z,1.97
2023-02-09T02:33:58.280Z,1.90
2023-02-09T02:36:32.248Z,1.91
2023-02-09T02:39:07.908Z,1.89
2023-02-09T02:41:58.202Z,1.66
2023-02-09T02:44:29.183Z,1.86
2023-02-09T02:47:02.437Z,1.87
2023-02-09T02:49:37.537Z,1.83
2023-02-09T02:52:09.292Z,1.80
2023-02-09T02:54:41.516Z,1.77
2023-02-09T02:57:16.157Z,1.74
2023-02-09T02:59:47.687Z,1.73
2023-02-09T03:02:21.168Z,1.73
2023-02-09T03:04:53.858Z,1.71
2023-02-09T03:07:21.798Z,1.73
2023-02-09T03:09:50.716Z,1.73
2023-02-09T03:12:25.602Z,1.72
2023-02-09T03:15:12.316Z,1.72
2023-02-09T03:17:48.490Z,1.71
2023-02-09T03:20:26.839Z,1.69
2023-02-09T03:22:59.019Z,1.69
2023-02-09T03:25:31.985Z,1.64
2023-02-09T03:28:07.144Z,1.72
2023-02-09T03:30:36.165Z,1.76
2023-02-09T03:33:05.978Z,1.77
2023-02-09T03:35:39.979Z,1.80
2023-02-09T03:38:08.014Z,1.84
2023-02-09T03:40:36.442Z,1.86
2023-02-09T03:43:04.501Z,1.86
2023-02-09T03:45:32.417Z,1.85
2023-02-09T03:48:00.288Z,1.87
2023-02-09T03:50:29.983Z,1.87
2023-02-09T03:52:59.403Z,1.70
2023-02-09T03:55:27.423Z,1.74
2023-02-09T03:57:55.563Z,1.85
2023-02-09T04:00:23.587Z,1.83
2023-02-09T04:02:51.480Z,1.79
2023-02-09T04:05:20.090Z,1.68
2023-02-09T04:07:48.327Z,1.67
2023-02-09T04:10:17.690Z,1.76
2023-02-09T04:12:45.806Z,1.75
2023-02-09T04:15:13.653Z,1.74
2023-02-09T04:17:41.514Z,1.66
2023-02-09T04:20:10.145Z,1.72
2023-02-09T04:22:37.981Z,1.72
2023-02-09T04:25:06.480Z,1.66
2023-02-09T04:27:36.179Z,1.71
2023-02-09T04:30:04.082Z,1.58
2023-02-09T04:32:32.111Z,1.74
2023-02-09T04:35:00.088Z,1.73
2023-02-09T04:37:27.913Z,1.72
2023-02-09T04:39:55.911Z,1.70
2023-02-09T04:42:24.956Z,1.66
2023-02-09T04:44:54.233Z,1.70
2023-02-09T04:47:22.165Z,1.60
2023-02-09T04:49:50.161Z,1.69
2023-02-09T04:52:18.684Z,1.49
2023-02-09T04:54:46.614Z,1.43
2023-02-09T04:57:31.752Z,1.54
2023-02-09T05:00:01.196Z,1.62
2023-02-09T05:02:29.106Z,1.59
2023-02-09T05:04:57.206Z,1.56
2023-02-09T05:07:26.558Z,1.54
2023-02-09T05:09:54.418Z,1.56
2023-02-09T05:12:22.326Z,1.41
2023-02-09T05:14:50.234Z,0.58
2023-02-09T05:17:21.120Z,1.56
2023-02-09T05:19:49.208Z,1.55
2023-02-09T05:22:17.311Z,1.56
2023-02-09T05:24:45.185Z,1.38
2023-02-09T05:27:13.121Z,1.62
2023-02-09T05:29:41.089Z,1.66
2023-02-09T05:32:09.054Z,1.67
2023-02-09T05:34:38.413Z,1.68
2023-02-09T05:37:06.342Z,1.66
2023-02-09T05:39:34.233Z,1.77
2023-02-09T05:42:17.694Z,1.71
2023-02-09T05:44:46.974Z,1.61
2023-02-09T05:47:16.833Z,1.84
2023-02-09T05:49:46.955Z,1.85
2023-02-09T05:52:16.692Z,1.87
2023-02-09T05:54:44.891Z,1.89
2023-02-09T05:57:12.902Z,1.91
2023-02-09T05:59:40.789Z,1.90
2023-02-09T06:02:08.663Z,1.92
2023-02-09T06:04:36.836Z,1.93
2023-02-09T06:07:06.194Z,1.94
2023-02-09T06:09:34.312Z,1.94
2023-02-09T06:12:02.468Z,1.87
2023-02-09T06:14:30.292Z,1.93
2023-02-09T06:16:58.152Z,1.06
2023-02-09T06:19:26.342Z,1.95
2023-02-09T06:21:54.311Z,1.95
2023-02-09T06:24:23.766Z,1.95
2023-02-09T06:26:51.938Z,1.96
2023-02-09T06:29:19.865Z,1.97
2023-02-09T06:31:47.998Z,1.91
2023-02-09T06:34:16.090Z,1.97
2023-02-09T06:36:44.284Z,1.97
2023-02-09T06:39:12.497Z,1.57
2023-02-09T06:41:41.909Z,1.96
2023-02-09T06:44:09.921Z,1.68
2023-02-09T06:46:37.867Z,1.97
2023-02-09T06:49:06.083Z,1.46
2023-02-09T06:51:34.035Z,1.99
2023-02-09T06:54:02.060Z,2.00
2023-02-09T06:56:30.203Z,2.01
2023-02-09T06:58:59.435Z,2.01
2023-02-09T07:01:27.269Z,1.97
2023-02-09T07:03:55.459Z,2.04
2023-02-09T07:06:23.292Z,2.03
2023-02-09T07:08:51.769Z,2.02
2023-02-09T07:11:20.871Z,1.94
2023-02-09T07:13:48.996Z,1.84
2023-02-09T07:16:18.244Z,1.12
2023-02-09T07:18:46.379Z,1.99
2023-02-09T07:21:18.650Z,2.06
2023-02-09T07:23:47.572Z,1.77
2023-02-09T07:26:17.386Z,2.03
2023-02-09T07:28:45.959Z,2.05
2023-02-09T07:31:16.266Z,1.98
2023-02-09T07:33:46.047Z,2.00
2023-02-09T07:36:16.400Z,2.04
2023-02-09T07:38:44.777Z,2.05
2023-02-09T07:41:16.414Z,1.94
2023-02-09T07:43:44.836Z,2.05
2023-02-09T07:46:15.512Z,2.04
2023-02-09T07:48:44.908Z,2.01
2023-02-09T07:51:15.044Z,2.01
2023-02-09T07:53:42.900Z,1.99
2023-02-09T07:56:10.916Z,1.98
2023-02-09T07:58:39.032Z,1.96
2023-02-09T08:01:08.930Z,1.96
2023-02-09T08:03:37.772Z,1.96
2023-02-09T08:06:13.388Z,1.83
2023-02-09T08:08:41.253Z,1.93
2023-02-09T08:11:09.179Z,1.95
2023-02-09T08:13:41.100Z,1.93
2023-02-09T08:16:11.490Z,1.84
2023-02-09T08:18:44.223Z,1.94
2023-02-09T08:21:17.422Z,1.94
2023-02-09T08:23:49.495Z,1.93
2023-02-09T08:26:17.491Z,1.94
2023-02-09T08:28:45.868Z,1.95
2023-02-09T08:31:14.994Z,1.97
2023-02-09T08:33:44.062Z,2.00
2023-02-09T08:36:14.458Z,2.01
2023-02-09T08:38:43.007Z,2.03
2023-02-09T08:41:14.007Z,2.04
2023-02-09T08:43:41.856Z,2.05
2023-02-09T08:46:12.161Z,2.08
2023-02-09T08:48:42.787Z,1.71
2023-02-09T08:51:14.687Z,2.10
2023-02-09T08:53:43.412Z,2.02
2023-02-09T08:56:11.725Z,2.11
2023-02-09T08:58:39.839Z,1.18
2023-02-09T09:01:07.815Z,1.94
2023-02-09T09:03:35.803Z,2.13
2023-02-09T09:06:05.638Z,2.06
2023-02-09T09:08:36.200Z,2.15
2023-02-09T09:11:06.611Z,2.16
2023-02-09T09:13:35.091Z,2.17
2023-02-09T09:16:05.114Z,2.20
2023-02-09T09:18:33.433Z,2.12
2023-02-09T09:21:01.472Z,2.21
2023-02-09T09:23:29.332Z,2.12
2023-02-09T09:26:03.259Z,2.21
2023-02-09T09:28:31.812Z,2.21
2023-02-09T09:31:06.040Z,2.21
2023-02-09T09:33:34.321Z,2.22
2023-02-09T09:36:02.568Z,2.24
2023-02-09T09:38:30.771Z,2.26
2023-02-09T09:40:58.822Z,2.28
2023-02-09T09:43:32.721Z,2.30
2023-02-09T09:46:01.833Z,2.31
2023-02-09T09:48:38.852Z,2.13
2023-02-09T09:51:13.313Z,2.32
2023-02-09T09:53:45.135Z,2.39
2023-02-09T09:56:15.387Z,2.41
2023-02-09T09:58:45.708Z,2.42
2023-02-09T10:01:15.489Z,2.35
2023-02-09T10:03:43.590Z,2.48
2023-02-09T10:06:16.445Z,2.42
2023-02-09T10:08:47.208Z,2.51
2023-02-09T10:11:17.633Z,2.52
2023-02-09T10:13:50.863Z,2.60
2023-02-09T10:16:20.797Z,2.60
2023-02-09T10:18:51.693Z,2.60
2023-02-09T10:21:20.022Z,2.43
2023-02-09T10:23:50.408Z,2.58
2023-02-09T10:26:25.033Z,2.59
2023-02-09T10:28:56.679Z,2.60
2023-02-09T10:31:42.652Z,2.46
2023-02-09T10:34:16.662Z,2.61
2023-02-09T10:36:49.677Z,2.23
2023-02-09T10:39:20.766Z,2.64
2023-02-09T10:41:51.267Z,2.63
2023-02-09T10:44:25.947Z,2.58
2023-02-09T10:47:10.914Z,2.65
2023-02-09T10:49:40.132Z,1.81
2023-02-09T10:52:16.306Z,2.65
2023-02-09T10:54:48.987Z,2.66
2023-02-09T10:57:28.906Z,2.64
2023-02-09T11:00:00.581Z,2.44
2023-02-09T11:02:38.106Z,2.25
2023-02-09T11:05:34.084Z,2.75
2023-02-09T11:08:15.658Z,2.21
2023-02-09T11:10:50.668Z,2.72
2023-02-09T11:13:22.367Z,2.75
2023-02-09T11:16:09.682Z,2.83
2023-02-09T11:18:38.155Z,2.86
2023-02-09T11:21:12.043Z,2.89
2023-02-09T11:23:52.313Z,2.66
2023-02-09T11:26:32.632Z,2.90
2023-02-09T11:29:07.714Z,2.77
2023-02-09T11:31:51.267Z,2.89
2023-02-09T11:34:35.940Z,2.65
2023-02-09T11:37:16.494Z,2.96
2023-02-09T11:39:52.023Z,2.96
2023-02-09T11:42:43.223Z,2.53
2023-02-09T11:45:15.764Z,2.88
2023-02-09T11:47:54.919Z,2.99
2023-02-09T11:50:28.179Z,3.00
2023-02-09T11:53:00.454Z,3.00
2023-02-09T11:55:32.990Z,3.01
2023-02-09T11:58:10.618Z,2.71
2023-02-09T12:00:54.838Z,2.91
2023-02-09T12:03:29.202Z,3.06
2023-02-09T12:05:57.631Z,3.08
2023-02-09T12:08:38.213Z,2.35
2023-02-09T12:11:20.633Z,3.14
2023-02-09T12:14:10.092Z,3.17
2023-02-09T12:16:42.387Z,3.17
2023-02-09T12:19:27.370Z,3.20
2023-02-09T12:21:55.507Z,2.28
2023-02-09T12:24:35.319Z,3.20
2023-02-09T12:27:03.337Z,3.19
2023-02-09T12:29:40.052Z,3.20
2023-02-09T12:32:25.655Z,3.19
2023-02-09T12:34:56.925Z,3.18
2023-02-09T12:37:28.049Z,3.16
2023-02-09T12:40:25.017Z,3.17
2023-02-09T12:43:12.795Z,3.18
2023-02-09T12:45:43.034Z,2.98
2023-02-09T12:48:19.368Z,3.19
2023-02-09T12:50:54.802Z,2.46
2023-02-09T12:53:45.276Z,3.20
2023-02-09T12:56:34.597Z,3.16
2023-02-09T12:59:17.035Z,3.11
2023-02-09T13:02:25.289Z,3.21
2023-02-09T13:05:03.098Z,3.17
2023-02-09T13:07:50.488Z,3.19
2023-02-09T13:10:25.761Z,3.14
2023-02-09T13:12:58.307Z,2.99
2023-02-09T13:15:30.271Z,2.65
2023-02-09T13:18:15.207Z,3.17
2023-02-09T13:21:17.032Z,3.18
2023-02-09T13:24:00.596Z,3.19
2023-02-09T13:26:32.831Z,3.09
2023-02-09T13:29:20.809Z,3.18
2023-02-09T13:32:00.251Z,3.20
2023-02-09T13:34:35.466Z,3.21
2023-02-09T13:37:16.347Z,3.25
2023-02-09T13:39:45.920Z,3.25
2023-02-09T13:42:20.897Z,3.22
2023-02-09T13:44:52.513Z,3.25
2023-02-09T13:47:21.181Z,3.22
2023-02-09T13:50:00.585Z,3.26
2023-02-09T13:52:36.430Z,3.09
2023-02-09T13:55:13.487Z,3.28
2023-02-09T13:57:44.695Z,3.27
2023-02-09T14:00:25.179Z,3.24
2023-02-09T14:02:55.999Z,3.27
2023-02-09T14:05:31.829Z,3.10
2023-02-09T14:08:00.799Z,3.29
2023-02-09T14:10:30.758Z,3.27
2023-02-09T14:13:04.027Z,3.30
2023-02-09T14:15:55.367Z,3.31
2023-02-09T14:18:30.436Z,3.29
2023-02-09T14:21:15.246Z,3.31
2023-02-09T14:23:45.887Z,3.29
2023-02-09T14:26:26.766Z,3.32
2023-02-09T14:29:06.186Z,3.23
2023-02-09T14:31:36.511Z,3.29
2023-02-09T14:34:04.574Z,3.28
2023-02-09T14:36:34.792Z,3.26
2023-02-09T14:39:14.080Z,3.26
2023-02-09T14:41:56.622Z,3.29
2023-02-09T14:44:24.971Z,3.31
2023-02-09T14:46:54.305Z,3.32
2023-02-09T14:49:23.436Z,3.32
2023-02-09T14:51:57.520Z,3.31
2023-02-09T14:54:27.873Z,3.32
2023-02-09T14:56:58.867Z,3.30
2023-02-09T14:59:26.702Z,3.29
2023-02-09T15:01:56.863Z,3.25
2023-02-09T15:04:24.829Z,3.15
2023-02-09T15:07:01.643Z,3.19
2023-02-09T15:09:35.237Z,3.16
2023-02-09T15:12:08.139Z,3.06
2023-02-09T15:14:43.643Z,3.02
2023-02-09T15:17:15.008Z,3.03
2023-02-09T15:19:43.438Z,3.00
2023-02-09T15:22:14.992Z,2.98
2023-02-09T15:24:43.681Z,2.93
2023-02-09T15:27:26.622Z,2.89
2023-02-09T15:29:57.504Z,2.38
2023-02-09T15:32:27.551Z,2.81
2023-02-09T15:34:55.657Z,2.77
2023-02-09T15:37:26.670Z,2.55
2023-02-09T15:39:57.084Z,2.77
2023-02-09T15:42:52.222Z,2.76
2023-02-09T15:45:40.293Z,2.71
2023-02-09T15:48:09.602Z,2.67
2023-02-09T15:50:40.222Z,2.64
2023-02-09T15:53:12.329Z,2.62
2023-02-09T15:55:41.001Z,2.58
2023-02-09T15:58:15.016Z,2.57
2023-02-09T16:00:43.369Z,2.51
2023-02-09T16:03:16.781Z,2.49
2023-02-09T16:05:46.157Z,2.53
2023-02-09T16:08:19.142Z,2.43
2023-02-09T16:10:47.906Z,2.49
2023-02-09T16:13:19.892Z,2.44
2023-02-09T16:15:48.554Z,2.51
2023-02-09T16:18:16.502Z,2.47
2023-02-09T16:20:48.097Z,2.48
2023-02-09T16:23:20.798Z,2.12
2023-02-09T16:25:50.509Z,2.48
2023-02-09T16:28:21.181Z,2.47
2023-02-09T16:30:52.001Z,2.43
2023-02-09T16:33:20.060Z,2.42
2023-02-09T16:35:53.721Z,2.38
2023-02-09T16:38:23.598Z,2.43
2023-02-09T16:40:51.954Z,2.42
2023-02-09T16:43:22.007Z,2.35
2023-02-09T16:46:02.795Z,1.48
2023-02-09T16:48:34.714Z,2.43
2023-02-09T16:51:03.363Z,2.30
2023-02-09T16:53:33.750Z,2.43
2023-02-09T16:56:02.255Z,2.05
2023-02-09T16:58:32.410Z,2.33
2023-02-09T17:01:00.300Z,2.20
2023-02-09T17:03:34.786Z,2.44
2023-02-09T17:06:03.459Z,2.44
2023-02-09T17:08:33.013Z,2.43
2023-02-09T17:11:02.362Z,2.35
2023-02-09T17:13:32.238Z,2.39
2023-02-09T17:16:02.316Z,2.51
2023-02-09T17:18:33.466Z,2.53
2023-02-09T17:21:03.975Z,2.58
2023-02-09T17:23:32.151Z,2.61
2023-02-09T17:26:00.674Z,2.54
2023-02-09T17:28:29.508Z,2.63
2023-02-09T17:31:02.169Z,2.52
2023-02-09T17:33:33.269Z,2.58
2023-02-09T17:38:50.077Z,2.56
2023-02-09T17:41:20.099Z,2.58
2023-02-09T17:43:48.960Z,2.06
2023-02-09T17:46:20.204Z,2.57
2023-02-09T17:48:49.140Z,2.56
2023-02-09T17:51:21.530Z,2.52
2023-02-09T17:53:49.440Z,2.51
2023-02-09T17:56:18.488Z,2.52
2023-02-09T17:58:46.668Z,2.51
2023-02-09T18:01:26.424Z,2.23
2023-02-09T18:03:55.409Z,1.97
2023-02-09T18:06:30.005Z,2.47
2023-02-09T18:08:57.968Z,2.44
2023-02-09T18:11:41.028Z,2.02
2023-02-09T18:14:10.380Z,2.41
2023-02-09T18:16:41.261Z,2.42
2023-02-09T18:19:09.734Z,2.46
2023-02-09T18:21:38.454Z,2.48
2023-02-09T18:24:07.748Z,2.51
2023-02-09T18:26:35.605Z,2.53
2023-02-09T18:29:03.511Z,2.52
2023-02-09T18:31:31.735Z,2.61
2023-02-09T18:34:00.949Z,2.67
2023-02-09T18:36:28.904Z,2.71
2023-02-09T18:38:57.021Z,2.78
2023-02-09T18:41:24.986Z,2.82
2023-02-09T18:43:54.441Z,2.78
2023-02-09T18:46:24.528Z,2.80
2023-02-09T18:48:52.460Z,2.57
2023-02-09T18:51:22.269Z,2.89
2023-02-09T18:53:51.249Z,2.05
2023-02-09T18:56:20.363Z,2.90
2023-02-09T18:58:49.119Z,2.83
2023-02-09T19:01:17.394Z,2.28
2023-02-09T19:03:45.232Z,2.84
2023-02-09T19:06:13.942Z,2.63
2023-02-09T19:08:43.305Z,2.75
2023-02-09T19:11:16.302Z,2.73
2023-02-09T19:14:04.323Z,2.87
2023-02-09T19:16:32.391Z,2.85
2023-02-09T19:19:00.830Z,2.76
2023-02-09T19:21:29.474Z,2.93
2023-02-09T19:23:58.780Z,2.96
2023-02-09T19:26:26.679Z,2.76
2023-02-09T19:28:57.411Z,2.92
2023-02-09T19:31:25.846Z,2.92
2023-02-09T19:33:56.394Z,2.77
2023-02-09T19:36:24.590Z,2.94
2023-02-09T19:38:52.618Z,2.96
2023-02-09T19:41:23.541Z,2.92
2023-02-09T19:43:56.161Z,3.00
2023-02-09T19:46:24.134Z,2.91
2023-02-09T19:48:53.696Z,2.98
2023-02-09T19:51:21.687Z,3.00
2023-02-09T19:53:50.287Z,2.96
2023-02-09T19:56:20.777Z,2.98
2023-02-09T19:58:50.691Z,3.01
2023-02-09T20:01:19.420Z,3.02
2023-02-09T20:03:48.147Z,3.05
2023-02-09T20:06:17.602Z,2.93
2023-02-09T20:08:45.489Z,3.01
2023-02-09T20:11:17.763Z,2.94
2023-02-09T20:13:46.854Z,2.85
2023-02-09T20:16:20.897Z,3.00
2023-02-09T20:18:49.086Z,3.02
2023-02-09T20:21:18.727Z,3.05
2023-02-09T20:23:47.322Z,3.00
2023-02-09T20:26:18.356Z,3.03
2023-02-09T20:28:46.240Z,3.03
2023-02-09T20:31:15.853Z,3.02
2023-02-09T20:33:45.308Z,3.02
2023-02-09T20:36:13.544Z,2.98
2023-02-09T20:38:41.694Z,2.97
2023-02-09T20:41:09.975Z,2.98
2023-02-09T20:43:55.397Z,3.01
2023-02-09T20:46:55.382Z,3.01
2023-02-09T20:49:29.935Z,3.04
2023-02-09T20:51:58.459Z,2.91
2023-02-09T20:54:26.360Z,3.05
2023-02-09T20:56:54.298Z,2.75
2023-02-09T20:59:23.685Z,3.05
2023-02-09T21:01:52.287Z,3.09
2023-02-09T21:04:20.183Z,3.10
2023-02-09T21:06:49.613Z,3.12
2023-02-09T21:09:17.520Z,2.99
2023-02-09T21:11:45.448Z,3.21
2023-02-09T21:14:21.992Z,3.27
2023-02-09T21:17:00.664Z,3.32
2023-02-09T21:19:28.705Z,3.36
2023-02-09T21:21:58.090Z,3.37
2023-02-09T21:24:26.030Z,3.41
2023-02-09T21:26:54.152Z,3.40
2023-02-09T21:29:21.962Z,3.40
2023-02-09T21:31:51.375Z,3.37
2023-02-09T21:34:19.615Z,3.31
2023-02-09T21:36:47.754Z,3.01
2023-02-09T21:39:16.950Z,3.33
2023-02-09T21:42:02.678Z,3.38
2023-02-09T21:44:30.709Z,3.21
2023-02-09T21:47:00.579Z,3.35
2023-02-09T21:49:31.668Z,3.38
2023-02-09T21:51:59.790Z,3.27
2023-02-09T21:54:33.364Z,3.19
2023-02-09T21:57:01.312Z,3.06
2023-02-09T21:59:29.430Z,3.10
2023-02-09T22:01:57.421Z,3.08
2023-02-09T22:04:25.818Z,3.12
2023-02-09T22:06:53.698Z,3.07
2023-02-09T22:09:23.445Z,2.97
2023-02-09T22:11:52.725Z,2.89
2023-02-09T22:14:20.532Z,2.61
2023-02-09T22:16:48.604Z,2.93
2023-02-09T22:19:16.703Z,2.97
2023-02-09T22:21:44.672Z,2.94
2023-02-09T22:24:14.196Z,2.84
2023-02-09T22:26:42.008Z,2.93
2023-02-09T22:29:13.783Z,2.92
2023-02-09T22:31:42.102Z,2.89
2023-02-09T22:34:10.060Z,2.92
2023-02-09T22:36:39.791Z,2.86
2023-02-09T22:39:08.740Z,3.05
2023-02-09T22:41:36.784Z,3.33
2023-02-09T22:44:07.279Z,3.41
2023-02-09T22:46:39.508Z,3.47
2023-02-09T22:49:09.656Z,3.49
2023-02-09T22:51:37.883Z,3.56
2023-02-09T22:54:06.710Z,3.60
2023-02-09T22:56:35.314Z,3.45
2023-02-09T22:59:03.136Z,3.67
2023-02-09T23:01:31.763Z,3.63
2023-02-09T23:04:01.534Z,3.73
2023-02-09T23:06:30.244Z,3.77
2023-02-09T23:08:59.990Z,3.76
2023-02-09T23:11:29.688Z,3.78
2023-02-09T23:14:11.903Z,3.82
2023-02-09T23:16:41.645Z,3.84
2023-02-09T23:19:13.638Z,3.83
2023-02-09T23:21:43.857Z,3.82
2023-02-09T23:24:12.296Z,3.80
2023-02-09T23:26:40.184Z,3.66
2023-02-09T23:29:10.888Z,3.20
2023-02-09T23:31:39.436Z,2.81
2023-02-09T23:34:07.713Z,3.15
2023-02-09T23:36:37.267Z,3.23
2023-02-09T23:39:07.089Z,3.39
2023-02-09T23:41:36.296Z,3.43
2023-02-09T23:44:04.670Z,3.26
2023-02-09T23:46:32.675Z,3.46
2023-02-09T23:49:00.797Z,3.44
2023-02-09T23:51:31.082Z,3.36
2023-02-09T23:54:01.719Z,3.39
2023-02-09T23:56:33.291Z,3.39
2023-02-09T23:59:01.115Z,3.38
